sensor_id;sensor_type;location;lat;lon;timestamp;P1;durP1;ratioP1;P2;durP2;ratioP2
7479;SDS011;3781;42.272;22.658;2024-01-30T00:00:25;7.23;;;1.47;;
7479;SDS011;3781;42.272;22.658;2024-01-30T00:02:52;0.37;;;0.37;;
7479;SDS011;3781;42.272;22.658;2024-01-30T00:05:19;3.93;;;1.13;;
7479;SDS011;3781;42.272;22.658;2024-01-30T00:07:45;0.47;;;0.10;;
7479;SDS011;3781;42.272;22.658;2024-01-30T00:10:14;1.17;;;0.70;;
7479;SDS011;3781;42.272;22.658;2024-01-30T00:12:41;1.07;;;1.07;;
7479;SDS011;3781;42.272;22.658;2024-01-30T00:15:08;0.57;;;0.57;;
7479;SDS011;3781;42.272;22.658;2024-01-30T00:17:35;2.40;;;1.90;;
7479;SDS011;3781;42.272;22.658;2024-01-30T00:20:03;3.40;;;1.07;;
7479;SDS011;3781;42.272;22.658;2024-01-30T00:22:32;1.70;;;0.83;;
7479;SDS011;3781;42.272;22.658;2024-01-30T00:24:59;0.87;;;0.87;;
7479;SDS011;3781;42.272;22.658;2024-01-30T00:27:28;0.67;;;0.63;;
7479;SDS011;3781;42.272;22.658;2024-01-30T00:29:54;0.20;;;0.20;;
7479;SDS011;3781;42.272;22.658;2024-01-30T00:32:21;1.10;;;1.10;;
7479;SDS011;3781;42.272;22.658;2024-01-30T00:34:49;1.30;;;1.27;;
7479;SDS011;3781;42.272;22.658;2024-01-30T00:37:16;0.40;;;0.40;;
7479;SDS011;3781;42.272;22.658;2024-01-30T00:39:43;2.83;;;1.17;;
7479;SDS011;3781;42.272;22.658;2024-01-30T00:42:10;0.30;;;0.20;;
7479;SDS011;3781;42.272;22.658;2024-01-30T00:44:39;0.17;;;0.17;;
7479;SDS011;3781;42.272;22.658;2024-01-30T00:47:06;0.30;;;0.30;;
7479;SDS011;3781;42.272;22.658;2024-01-30T00:49:33;1.70;;;1.60;;
7479;SDS011;3781;42.272;22.658;2024-01-30T00:52:00;0.27;;;0.27;;
7479;SDS011;3781;42.272;22.658;2024-01-30T00:54:26;0.80;;;0.50;;
7479;SDS011;3781;42.272;22.658;2024-01-30T00:56:53;0.97;;;0.90;;
7479;SDS011;3781;42.272;22.658;2024-01-30T00:59:20;1.13;;;0.83;;
7479;SDS011;3781;42.272;22.658;2024-01-30T01:01:48;0.63;;;0.20;;
7479;SDS011;3781;42.272;22.658;2024-01-30T01:04:15;0.50;;;0.50;;
7479;SDS011;3781;42.272;22.658;2024-01-30T01:06:42;3.23;;;2.27;;
7479;SDS011;3781;42.272;22.658;2024-01-30T01:09:10;0.33;;;0.33;;
7479;SDS011;3781;42.272;22.658;2024-01-30T01:11:37;0.00;;;0.00;;
7479;SDS011;3781;42.272;22.658;2024-01-30T01:14:04;0.57;;;0.57;;
7479;SDS011;3781;42.272;22.658;2024-01-30T01:16:31;0.50;;;0.50;;
7479;SDS011;3781;42.272;22.658;2024-01-30T01:18:59;0.30;;;0.30;;
7479;SDS011;3781;42.272;22.658;2024-01-30T01:21:26;1.10;;;0.63;;
7479;SDS011;3781;42.272;22.658;2024-01-30T01:23:53;0.37;;;0.37;;
7479;SDS011;3781;42.272;22.658;2024-01-30T01:26:20;1.90;;;1.17;;
7479;SDS011;3781;42.272;22.658;2024-01-30T01:28:47;0.37;;;0.37;;
7479;SDS011;3781;42.272;22.658;2024-01-30T01:31:13;2.33;;;1.03;;
7479;SDS011;3781;42.272;22.658;2024-01-30T01:33:40;0.23;;;0.07;;
7479;SDS011;3781;42.272;22.658;2024-01-30T01:36:09;3.10;;;0.70;;
7479;SDS011;3781;42.272;22.658;2024-01-30T01:38:36;0.40;;;0.40;;
7479;SDS011;3781;42.272;22.658;2024-01-30T01:41:03;0.40;;;0.27;;
7479;SDS011;3781;42.272;22.658;2024-01-30T01:43:30;0.60;;;0.20;;
7479;SDS011;3781;42.272;22.658;2024-01-30T01:45:57;0.20;;;0.20;;
7479;SDS011;3781;42.272;22.658;2024-01-30T01:48:24;0.67;;;0.20;;
7479;SDS011;3781;42.272;22.658;2024-01-30T01:50:51;0.47;;;0.33;;
7479;SDS011;3781;42.272;22.658;2024-01-30T01:53:20;0.10;;;0.10;;
7479;SDS011;3781;42.272;22.658;2024-01-30T01:55:47;0.10;;;0.10;;
7479;SDS011;3781;42.272;22.658;2024-01-30T01:58:14;1.80;;;0.93;;
7479;SDS011;3781;42.272;22.658;2024-01-30T02:00:41;0.50;;;0.50;;
7479;SDS011;3781;42.272;22.658;2024-01-30T02:03:08;0.97;;;0.97;;
7479;SDS011;3781;42.272;22.658;2024-01-30T02:05:37;0.73;;;0.73;;
7479;SDS011;3781;42.272;22.658;2024-01-30T02:08:05;1.40;;;0.23;;
7479;SDS011;3781;42.272;22.658;2024-01-30T02:10:34;0.20;;;0.20;;
7479;SDS011;3781;42.272;22.658;2024-01-30T02:13:01;0.33;;;0.27;;
7479;SDS011;3781;42.272;22.658;2024-01-30T02:15:28;0.53;;;0.53;;
7479;SDS011;3781;42.272;22.658;2024-01-30T02:17:55;1.67;;;1.57;;
7479;SDS011;3781;42.272;22.658;2024-01-30T02:20:21;1.13;;;1.10;;
7479;SDS011;3781;42.272;22.658;2024-01-30T02:22:52;1.03;;;0.90;;
7479;SDS011;3781;42.272;22.658;2024-01-30T02:25:20;0.10;;;0.10;;
7479;SDS011;3781;42.272;22.658;2024-01-30T02:27:56;0.40;;;0.40;;
7479;SDS011;3781;42.272;22.658;2024-01-30T02:30:22;0.50;;;0.27;;
7479;SDS011;3781;42.272;22.658;2024-01-30T02:32:49;0.33;;;0.33;;
7479;SDS011;3781;42.272;22.658;2024-01-30T02:35:16;6.73;;;1.23;;
7479;SDS011;3781;42.272;22.658;2024-01-30T02:37:42;4.13;;;1.97;;
7479;SDS011;3781;42.272;22.658;2024-01-30T02:40:11;1.00;;;1.00;;
7479;SDS011;3781;42.272;22.658;2024-01-30T02:42:37;0.07;;;0.07;;
7479;SDS011;3781;42.272;22.658;2024-01-30T02:45:07;0.93;;;0.93;;
7479;SDS011;3781;42.272;22.658;2024-01-30T02:47:34;1.40;;;0.73;;
7479;SDS011;3781;42.272;22.658;2024-01-30T02:50:02;0.53;;;0.53;;
7479;SDS011;3781;42.272;22.658;2024-01-30T02:52:29;0.67;;;0.67;;
7479;SDS011;3781;42.272;22.658;2024-01-30T02:54:56;2.10;;;1.03;;
7479;SDS011;3781;42.272;22.658;2024-01-30T02:57:24;0.57;;;0.57;;
7479;SDS011;3781;42.272;22.658;2024-01-30T02:59:50;0.03;;;0.03;;
7479;SDS011;3781;42.272;22.658;2024-01-30T03:02:17;3.20;;;1.70;;
7479;SDS011;3781;42.272;22.658;2024-01-30T03:04:45;0.63;;;0.13;;
7479;SDS011;3781;42.272;22.658;2024-01-30T03:07:12;0.00;;;0.00;;
7479;SDS011;3781;42.272;22.658;2024-01-30T03:09:40;0.00;;;0.00;;
7479;SDS011;3781;42.272;22.658;2024-01-30T03:12:08;0.00;;;0.00;;
7479;SDS011;3781;42.272;22.658;2024-01-30T03:14:36;0.00;;;0.00;;
7479;SDS011;3781;42.272;22.658;2024-01-30T03:17:03;3.60;;;0.60;;
7479;SDS011;3781;42.272;22.658;2024-01-30T03:19:29;0.20;;;0.20;;
7479;SDS011;3781;42.272;22.658;2024-01-30T03:21:56;1.23;;;1.20;;
7479;SDS011;3781;42.272;22.658;2024-01-30T03:24:23;0.90;;;0.90;;
7479;SDS011;3781;42.272;22.658;2024-01-30T03:26:50;0.00;;;0.00;;
7479;SDS011;3781;42.272;22.658;2024-01-30T03:29:17;0.40;;;0.40;;
7479;SDS011;3781;42.272;22.658;2024-01-30T03:31:45;0.20;;;0.20;;
7479;SDS011;3781;42.272;22.658;2024-01-30T03:34:11;0.50;;;0.37;;
7479;SDS011;3781;42.272;22.658;2024-01-30T03:36:38;0.87;;;0.33;;
7479;SDS011;3781;42.272;22.658;2024-01-30T03:39:05;3.50;;;0.87;;
7479;SDS011;3781;42.272;22.658;2024-01-30T03:41:32;3.00;;;1.07;;
7479;SDS011;3781;42.272;22.658;2024-01-30T03:43:59;0.87;;;0.87;;
7479;SDS011;3781;42.272;22.658;2024-01-30T03:46:26;1.30;;;0.33;;
7479;SDS011;3781;42.272;22.658;2024-01-30T03:48:54;1.50;;;1.40;;
7479;SDS011;3781;42.272;22.658;2024-01-30T03:51:21;0.00;;;0.00;;
7479;SDS011;3781;42.272;22.658;2024-01-30T03:53:47;0.30;;;0.30;;
7479;SDS011;3781;42.272;22.658;2024-01-30T03:56:14;1.73;;;0.50;;
7479;SDS011;3781;42.272;22.658;2024-01-30T03:58:41;0.97;;;0.70;;
7479;SDS011;3781;42.272;22.658;2024-01-30T04:01:12;4.70;;;0.47;;
7479;SDS011;3781;42.272;22.658;2024-01-30T04:03:39;0.63;;;0.50;;
7479;SDS011;3781;42.272;22.658;2024-01-30T04:06:08;1.90;;;1.60;;
7479;SDS011;3781;42.272;22.658;2024-01-30T04:08:34;10.40;;;3.60;;
7479;SDS011;3781;42.272;22.658;2024-01-30T04:11:03;0.50;;;0.47;;
7479;SDS011;3781;42.272;22.658;2024-01-30T04:13:30;0.77;;;0.77;;
7479;SDS011;3781;42.272;22.658;2024-01-30T04:15:58;0.00;;;0.00;;
7479;SDS011;3781;42.272;22.658;2024-01-30T04:18:26;0.00;;;0.00;;
7479;SDS011;3781;42.272;22.658;2024-01-30T04:20:53;1.50;;;0.73;;
7479;SDS011;3781;42.272;22.658;2024-01-30T04:23:22;2.20;;;2.00;;
7479;SDS011;3781;42.272;22.658;2024-01-30T04:25:49;1.93;;;0.40;;
7479;SDS011;3781;42.272;22.658;2024-01-30T04:28:16;0.00;;;0.00;;
7479;SDS011;3781;42.272;22.658;2024-01-30T04:30:43;0.10;;;0.10;;
7479;SDS011;3781;42.272;22.658;2024-01-30T04:33:10;2.07;;;0.90;;
7479;SDS011;3781;42.272;22.658;2024-01-30T04:35:37;0.40;;;0.40;;
7479;SDS011;3781;42.272;22.658;2024-01-30T04:38:04;1.33;;;0.73;;
7479;SDS011;3781;42.272;22.658;2024-01-30T04:40:32;0.33;;;0.33;;
7479;SDS011;3781;42.272;22.658;2024-01-30T04:42:59;0.10;;;0.00;;
7479;SDS011;3781;42.272;22.658;2024-01-30T04:45:26;0.03;;;0.03;;
7479;SDS011;3781;42.272;22.658;2024-01-30T04:47:53;0.60;;;0.40;;
7479;SDS011;3781;42.272;22.658;2024-01-30T04:50:20;1.87;;;1.47;;
7479;SDS011;3781;42.272;22.658;2024-01-30T04:52:46;1.03;;;0.70;;
7479;SDS011;3781;42.272;22.658;2024-01-30T04:55:13;0.40;;;0.40;;
7479;SDS011;3781;42.272;22.658;2024-01-30T04:57:42;0.87;;;0.53;;
7479;SDS011;3781;42.272;22.658;2024-01-30T05:00:09;1.67;;;0.77;;
7479;SDS011;3781;42.272;22.658;2024-01-30T05:02:37;2.73;;;0.80;;
7479;SDS011;3781;42.272;22.658;2024-01-30T05:05:04;0.73;;;0.43;;
7479;SDS011;3781;42.272;22.658;2024-01-30T05:07:31;0.57;;;0.57;;
7479;SDS011;3781;42.272;22.658;2024-01-30T05:09:58;3.80;;;1.37;;
7479;SDS011;3781;42.272;22.658;2024-01-30T05:12:25;7.53;;;2.40;;
7479;SDS011;3781;42.272;22.658;2024-01-30T05:14:54;2.97;;;2.07;;
7479;SDS011;3781;42.272;22.658;2024-01-30T05:17:21;2.03;;;1.80;;
7479;SDS011;3781;42.272;22.658;2024-01-30T05:19:48;2.77;;;1.73;;
7479;SDS011;3781;42.272;22.658;2024-01-30T05:22:14;0.57;;;0.57;;
7479;SDS011;3781;42.272;22.658;2024-01-30T05:24:43;2.20;;;1.10;;
7479;SDS011;3781;42.272;22.658;2024-01-30T05:27:10;2.00;;;1.83;;
7479;SDS011;3781;42.272;22.658;2024-01-30T05:29:38;0.50;;;0.50;;
7479;SDS011;3781;42.272;22.658;2024-01-30T05:32:07;0.37;;;0.37;;
7479;SDS011;3781;42.272;22.658;2024-01-30T05:34:33;0.47;;;0.43;;
7479;SDS011;3781;42.272;22.658;2024-01-30T05:37:01;1.13;;;0.70;;
7479;SDS011;3781;42.272;22.658;2024-01-30T05:39:30;3.20;;;1.70;;
7479;SDS011;3781;42.272;22.658;2024-01-30T05:41:58;4.37;;;0.60;;
7479;SDS011;3781;42.272;22.658;2024-01-30T05:44:25;0.97;;;0.77;;
7479;SDS011;3781;42.272;22.658;2024-01-30T05:46:52;0.50;;;0.50;;
7479;SDS011;3781;42.272;22.658;2024-01-30T05:49:20;1.47;;;1.30;;
7479;SDS011;3781;42.272;22.658;2024-01-30T05:51:47;0.83;;;0.83;;
7479;SDS011;3781;42.272;22.658;2024-01-30T05:54:13;1.83;;;0.97;;
7479;SDS011;3781;42.272;22.658;2024-01-30T05:56:40;0.87;;;0.87;;
7479;SDS011;3781;42.272;22.658;2024-01-30T05:59:07;6.37;;;1.43;;
7479;SDS011;3781;42.272;22.658;2024-01-30T06:01:34;0.17;;;0.17;;
7479;SDS011;3781;42.272;22.658;2024-01-30T06:04:01;1.57;;;1.47;;
7479;SDS011;3781;42.272;22.658;2024-01-30T06:06:29;4.10;;;0.77;;
7479;SDS011;3781;42.272;22.658;2024-01-30T06:08:56;1.77;;;1.67;;
7479;SDS011;3781;42.272;22.658;2024-01-30T06:11:23;1.47;;;1.37;;
7479;SDS011;3781;42.272;22.658;2024-01-30T06:13:49;1.50;;;1.37;;
7479;SDS011;3781;42.272;22.658;2024-01-30T06:16:16;1.77;;;1.67;;
7479;SDS011;3781;42.272;22.658;2024-01-30T06:18:44;2.00;;;1.07;;
7479;SDS011;3781;42.272;22.658;2024-01-30T06:21:11;1.00;;;0.70;;
7479;SDS011;3781;42.272;22.658;2024-01-30T06:23:39;1.23;;;1.13;;
7479;SDS011;3781;42.272;22.658;2024-01-30T06:26:07;2.03;;;1.60;;
7479;SDS011;3781;42.272;22.658;2024-01-30T06:28:33;6.07;;;2.97;;
7479;SDS011;3781;42.272;22.658;2024-01-30T06:31:00;1.30;;;1.23;;
7479;SDS011;3781;42.272;22.658;2024-01-30T06:33:27;0.90;;;0.60;;
7479;SDS011;3781;42.272;22.658;2024-01-30T06:35:54;2.17;;;1.00;;
7479;SDS011;3781;42.272;22.658;2024-01-30T06:38:21;2.47;;;2.17;;
7479;SDS011;3781;42.272;22.658;2024-01-30T06:40:49;3.80;;;1.50;;
7479;SDS011;3781;42.272;22.658;2024-01-30T06:43:16;3.53;;;1.20;;
7479;SDS011;3781;42.272;22.658;2024-01-30T06:45:43;6.03;;;3.77;;
7479;SDS011;3781;42.272;22.658;2024-01-30T06:48:09;5.20;;;2.93;;
7479;SDS011;3781;42.272;22.658;2024-01-30T06:50:36;4.90;;;3.33;;
7479;SDS011;3781;42.272;22.658;2024-01-30T06:53:03;8.50;;;4.07;;
7479;SDS011;3781;42.272;22.658;2024-01-30T06:55:30;7.97;;;3.27;;
7479;SDS011;3781;42.272;22.658;2024-01-30T06:57:58;2.57;;;2.37;;
7479;SDS011;3781;42.272;22.658;2024-01-30T07:00:25;7.53;;;2.53;;
7479;SDS011;3781;42.272;22.658;2024-01-30T07:02:52;14.37;;;4.73;;
7479;SDS011;3781;42.272;22.658;2024-01-30T07:05:19;12.27;;;3.93;;
7479;SDS011;3781;42.272;22.658;2024-01-30T07:07:47;3.93;;;2.43;;
7479;SDS011;3781;42.272;22.658;2024-01-30T07:10:13;2.93;;;1.50;;
7479;SDS011;3781;42.272;22.658;2024-01-30T07:12:40;2.33;;;1.60;;
7479;SDS011;3781;42.272;22.658;2024-01-30T07:15:09;6.87;;;2.63;;
7479;SDS011;3781;42.272;22.658;2024-01-30T07:17:36;3.53;;;2.33;;
7479;SDS011;3781;42.272;22.658;2024-01-30T07:20:04;4.10;;;2.20;;
7479;SDS011;3781;42.272;22.658;2024-01-30T07:22:32;2.07;;;1.50;;
7479;SDS011;3781;42.272;22.658;2024-01-30T07:24:59;1.90;;;1.33;;
7479;SDS011;3781;42.272;22.658;2024-01-30T07:27:26;21.03;;;9.57;;
7479;SDS011;3781;42.272;22.658;2024-01-30T07:29:53;18.67;;;8.93;;
7479;SDS011;3781;42.272;22.658;2024-01-30T07:32:21;22.33;;;9.83;;
7479;SDS011;3781;42.272;22.658;2024-01-30T07:34:49;4.10;;;2.17;;
7479;SDS011;3781;42.272;22.658;2024-01-30T07:37:15;4.70;;;2.17;;
7479;SDS011;3781;42.272;22.658;2024-01-30T07:39:42;6.63;;;4.50;;
7479;SDS011;3781;42.272;22.658;2024-01-30T07:42:10;2.00;;;1.50;;
7479;SDS011;3781;42.272;22.658;2024-01-30T07:44:36;4.00;;;2.00;;
7479;SDS011;3781;42.272;22.658;2024-01-30T07:47:04;2.60;;;0.97;;
7479;SDS011;3781;42.272;22.658;2024-01-30T07:49:35;1.90;;;1.80;;
7479;SDS011;3781;42.272;22.658;2024-01-30T07:52:06;1.93;;;1.40;;
7479;SDS011;3781;42.272;22.658;2024-01-30T07:54:32;3.03;;;2.67;;
7479;SDS011;3781;42.272;22.658;2024-01-30T07:57:00;3.37;;;2.60;;
7479;SDS011;3781;42.272;22.658;2024-01-30T07:59:27;2.83;;;1.93;;
7479;SDS011;3781;42.272;22.658;2024-01-30T08:01:53;7.63;;;4.43;;
7479;SDS011;3781;42.272;22.658;2024-01-30T08:04:20;9.67;;;5.60;;
7479;SDS011;3781;42.272;22.658;2024-01-30T08:06:48;4.57;;;3.03;;
7479;SDS011;3781;42.272;22.658;2024-01-30T08:09:15;10.07;;;3.73;;
7479;SDS011;3781;42.272;22.658;2024-01-30T08:11:42;5.33;;;2.37;;
7479;SDS011;3781;42.272;22.658;2024-01-30T08:14:09;12.63;;;6.30;;
7479;SDS011;3781;42.272;22.658;2024-01-30T08:16:36;7.20;;;2.97;;
7479;SDS011;3781;42.272;22.658;2024-01-30T08:19:02;2.23;;;2.03;;
7479;SDS011;3781;42.272;22.658;2024-01-30T08:21:29;6.83;;;4.03;;
7479;SDS011;3781;42.272;22.658;2024-01-30T08:24:02;4.60;;;3.13;;
7479;SDS011;3781;42.272;22.658;2024-01-30T08:26:29;7.13;;;2.40;;
7479;SDS011;3781;42.272;22.658;2024-01-30T08:28:56;5.87;;;2.87;;
7479;SDS011;3781;42.272;22.658;2024-01-30T08:31:23;2.77;;;2.37;;
7479;SDS011;3781;42.272;22.658;2024-01-30T08:33:50;3.47;;;2.80;;
7479;SDS011;3781;42.272;22.658;2024-01-30T08:36:18;5.07;;;3.10;;
7479;SDS011;3781;42.272;22.658;2024-01-30T08:38:46;3.70;;;2.00;;
7479;SDS011;3781;42.272;22.658;2024-01-30T08:41:14;4.60;;;2.67;;
7479;SDS011;3781;42.272;22.658;2024-01-30T08:43:41;5.20;;;2.43;;
7479;SDS011;3781;42.272;22.658;2024-01-30T08:46:09;4.37;;;2.47;;
7479;SDS011;3781;42.272;22.658;2024-01-30T08:48:36;5.93;;;2.97;;
7479;SDS011;3781;42.272;22.658;2024-01-30T08:51:04;2.47;;;2.23;;
7479;SDS011;3781;42.272;22.658;2024-01-30T08:53:33;4.13;;;2.40;;
7479;SDS011;3781;42.272;22.658;2024-01-30T08:56:02;4.57;;;2.00;;
7479;SDS011;3781;42.272;22.658;2024-01-30T08:58:31;3.23;;;1.67;;
7479;SDS011;3781;42.272;22.658;2024-01-30T09:01:03;1.73;;;1.40;;
7479;SDS011;3781;42.272;22.658;2024-01-30T09:03:31;6.27;;;2.97;;
7479;SDS011;3781;42.272;22.658;2024-01-30T09:05:58;1.83;;;1.67;;
7479;SDS011;3781;42.272;22.658;2024-01-30T09:08:25;4.33;;;2.17;;
7479;SDS011;3781;42.272;22.658;2024-01-30T09:10:52;1.37;;;1.27;;
7479;SDS011;3781;42.272;22.658;2024-01-30T09:13:18;2.93;;;1.87;;
7479;SDS011;3781;42.272;22.658;2024-01-30T09:15:47;0.83;;;0.80;;
7479;SDS011;3781;42.272;22.658;2024-01-30T09:18:14;4.87;;;2.33;;
7479;SDS011;3781;42.272;22.658;2024-01-30T09:20:41;2.53;;;2.07;;
7479;SDS011;3781;42.272;22.658;2024-01-30T09:23:07;7.73;;;2.97;;
7479;SDS011;3781;42.272;22.658;2024-01-30T09:25:34;7.53;;;2.83;;
7479;SDS011;3781;42.272;22.658;2024-01-30T09:28:01;5.57;;;3.10;;
7479;SDS011;3781;42.272;22.658;2024-01-30T09:30:28;9.97;;;5.00;;
7479;SDS011;3781;42.272;22.658;2024-01-30T09:32:56;2.47;;;1.83;;
7479;SDS011;3781;42.272;22.658;2024-01-30T09:35:23;9.27;;;3.27;;
7479;SDS011;3781;42.272;22.658;2024-01-30T09:37:50;5.63;;;2.97;;
7479;SDS011;3781;42.272;22.658;2024-01-30T09:40:18;2.13;;;1.00;;
7479;SDS011;3781;42.272;22.658;2024-01-30T09:42:46;1.80;;;1.00;;
7479;SDS011;3781;42.272;22.658;2024-01-30T09:45:15;0.87;;;0.70;;
7479;SDS011;3781;42.272;22.658;2024-01-30T09:47:45;2.73;;;1.70;;
7479;SDS011;3781;42.272;22.658;2024-01-30T09:50:14;1.20;;;0.70;;
7479;SDS011;3781;42.272;22.658;2024-01-30T09:52:42;1.90;;;0.87;;
7479;SDS011;3781;42.272;22.658;2024-01-30T09:55:09;0.90;;;0.83;;
7479;SDS011;3781;42.272;22.658;2024-01-30T09:57:36;0.87;;;0.87;;
7479;SDS011;3781;42.272;22.658;2024-01-30T10:00:03;1.80;;;1.07;;
7479;SDS011;3781;42.272;22.658;2024-01-30T10:02:33;2.23;;;1.77;;
7479;SDS011;3781;42.272;22.658;2024-01-30T10:05:00;3.97;;;3.10;;
7479;SDS011;3781;42.272;22.658;2024-01-30T10:07:28;4.87;;;3.00;;
7479;SDS011;3781;42.272;22.658;2024-01-30T10:09:55;4.37;;;2.60;;
7479;SDS011;3781;42.272;22.658;2024-01-30T10:12:22;1.57;;;1.47;;
7479;SDS011;3781;42.272;22.658;2024-01-30T10:14:49;2.53;;;1.40;;
7479;SDS011;3781;42.272;22.658;2024-01-30T10:17:16;1.40;;;1.27;;
7479;SDS011;3781;42.272;22.658;2024-01-30T10:19:43;1.17;;;0.87;;
7479;SDS011;3781;42.272;22.658;2024-01-30T10:22:10;1.63;;;1.53;;
7479;SDS011;3781;42.272;22.658;2024-01-30T10:24:38;2.40;;;1.57;;
7479;SDS011;3781;42.272;22.658;2024-01-30T10:27:05;4.50;;;2.20;;
7479;SDS011;3781;42.272;22.658;2024-01-30T10:29:32;2.47;;;2.23;;
7479;SDS011;3781;42.272;22.658;2024-01-30T10:31:59;1.63;;;1.30;;
7479;SDS011;3781;42.272;22.658;2024-01-30T10:34:26;1.90;;;1.67;;
7479;SDS011;3781;42.272;22.658;2024-01-30T10:36:57;3.60;;;2.20;;
7479;SDS011;3781;42.272;22.658;2024-01-30T10:39:27;2.60;;;2.40;;
7479;SDS011;3781;42.272;22.658;2024-01-30T10:42:00;2.60;;;1.80;;
7479;SDS011;3781;42.272;22.658;2024-01-30T10:44:33;3.80;;;2.40;;
7479;SDS011;3781;42.272;22.658;2024-01-30T10:47:06;6.73;;;3.73;;
7479;SDS011;3781;42.272;22.658;2024-01-30T10:49:37;6.23;;;4.00;;
7479;SDS011;3781;42.272;22.658;2024-01-30T10:52:07;9.27;;;4.10;;
7479;SDS011;3781;42.272;22.658;2024-01-30T10:54:35;29.57;;;11.13;;
7479;SDS011;3781;42.272;22.658;2024-01-30T10:57:05;3.33;;;3.03;;
7479;SDS011;3781;42.272;22.658;2024-01-30T10:59:32;2.80;;;2.20;;
7479;SDS011;3781;42.272;22.658;2024-01-30T11:01:59;9.93;;;5.00;;
7479;SDS011;3781;42.272;22.658;2024-01-30T11:04:27;11.57;;;4.30;;
7479;SDS011;3781;42.272;22.658;2024-01-30T11:07:01;2.10;;;1.57;;
7479;SDS011;3781;42.272;22.658;2024-01-30T11:09:29;3.80;;;2.77;;
7479;SDS011;3781;42.272;22.658;2024-01-30T11:11:56;1.37;;;1.00;;
7479;SDS011;3781;42.272;22.658;2024-01-30T11:14:27;1.93;;;1.47;;
7479;SDS011;3781;42.272;22.658;2024-01-30T11:16:57;1.33;;;1.23;;
7479;SDS011;3781;42.272;22.658;2024-01-30T11:19:24;4.37;;;3.30;;
7479;SDS011;3781;42.272;22.658;2024-01-30T11:21:52;10.57;;;5.57;;
7479;SDS011;3781;42.272;22.658;2024-01-30T11:24:21;7.40;;;3.13;;
7479;SDS011;3781;42.272;22.658;2024-01-30T11:26:48;4.83;;;3.20;;
7479;SDS011;3781;42.272;22.658;2024-01-30T11:29:16;10.90;;;5.60;;
7479;SDS011;3781;42.272;22.658;2024-01-30T11:31:52;4.77;;;3.07;;
7479;SDS011;3781;42.272;22.658;2024-01-30T11:34:20;6.80;;;3.90;;
7479;SDS011;3781;42.272;22.658;2024-01-30T11:36:48;3.73;;;2.43;;
7479;SDS011;3781;42.272;22.658;2024-01-30T11:39:20;2.40;;;2.20;;
7479;SDS011;3781;42.272;22.658;2024-01-30T11:41:48;8.00;;;4.07;;
7479;SDS011;3781;42.272;22.658;2024-01-30T11:44:18;7.67;;;4.57;;
7479;SDS011;3781;42.272;22.658;2024-01-30T11:46:46;5.57;;;2.93;;
7479;SDS011;3781;42.272;22.658;2024-01-30T11:49:15;3.73;;;2.70;;
7479;SDS011;3781;42.272;22.658;2024-01-30T11:51:42;2.87;;;2.50;;
7479;SDS011;3781;42.272;22.658;2024-01-30T11:54:13;3.60;;;2.63;;
7479;SDS011;3781;42.272;22.658;2024-01-30T11:56:41;7.87;;;3.17;;
7479;SDS011;3781;42.272;22.658;2024-01-30T11:59:08;4.63;;;2.17;;
7479;SDS011;3781;42.272;22.658;2024-01-30T12:01:35;4.13;;;2.73;;
7479;SDS011;3781;42.272;22.658;2024-01-30T12:04:02;6.77;;;3.10;;
7479;SDS011;3781;42.272;22.658;2024-01-30T12:06:35;7.23;;;3.90;;
7479;SDS011;3781;42.272;22.658;2024-01-30T12:09:02;7.53;;;3.07;;
7479;SDS011;3781;42.272;22.658;2024-01-30T12:11:30;6.03;;;3.30;;
7479;SDS011;3781;42.272;22.658;2024-01-30T12:13:57;3.27;;;2.43;;
7479;SDS011;3781;42.272;22.658;2024-01-30T12:16:24;2.37;;;2.13;;
7479;SDS011;3781;42.272;22.658;2024-01-30T12:18:59;2.50;;;1.90;;
7479;SDS011;3781;42.272;22.658;2024-01-30T12:21:26;2.67;;;2.33;;
7479;SDS011;3781;42.272;22.658;2024-01-30T12:23:55;11.03;;;6.47;;
7479;SDS011;3781;42.272;22.658;2024-01-30T12:26:23;39.73;;;17.03;;
7479;SDS011;3781;42.272;22.658;2024-01-30T12:28:50;66.07;;;22.47;;
7479;SDS011;3781;42.272;22.658;2024-01-30T12:31:17;15.13;;;6.03;;
7479;SDS011;3781;42.272;22.658;2024-01-30T12:33:44;19.47;;;8.57;;
7479;SDS011;3781;42.272;22.658;2024-01-30T12:36:15;11.23;;;5.77;;
7479;SDS011;3781;42.272;22.658;2024-01-30T12:38:43;8.90;;;5.40;;
7479;SDS011;3781;42.272;22.658;2024-01-30T12:41:11;6.47;;;3.87;;
7479;SDS011;3781;42.272;22.658;2024-01-30T12:43:39;23.87;;;12.87;;
7479;SDS011;3781;42.272;22.658;2024-01-30T12:46:06;24.93;;;13.10;;
7479;SDS011;3781;42.272;22.658;2024-01-30T12:48:33;13.57;;;7.63;;
7479;SDS011;3781;42.272;22.658;2024-01-30T12:51:00;4.00;;;3.27;;
7479;SDS011;3781;42.272;22.658;2024-01-30T12:53:27;7.60;;;3.10;;
7479;SDS011;3781;42.272;22.658;2024-01-30T12:55:54;8.97;;;4.37;;
7479;SDS011;3781;42.272;22.658;2024-01-30T12:58:23;14.53;;;5.93;;
7479;SDS011;3781;42.272;22.658;2024-01-30T13:00:50;14.17;;;6.33;;
7479;SDS011;3781;42.272;22.658;2024-01-30T13:03:20;54.43;;;16.03;;
7479;SDS011;3781;42.272;22.658;2024-01-30T13:05:47;3.43;;;1.70;;
7479;SDS011;3781;42.272;22.658;2024-01-30T13:08:14;6.80;;;4.17;;
7479;SDS011;3781;42.272;22.658;2024-01-30T13:10:40;5.70;;;3.23;;
7479;SDS011;3781;42.272;22.658;2024-01-30T13:13:07;14.87;;;5.67;;
7479;SDS011;3781;42.272;22.658;2024-01-30T13:15:36;22.73;;;9.20;;
7479;SDS011;3781;42.272;22.658;2024-01-30T13:18:03;15.73;;;6.27;;
7479;SDS011;3781;42.272;22.658;2024-01-30T13:20:31;33.90;;;14.07;;
7479;SDS011;3781;42.272;22.658;2024-01-30T13:22:58;24.67;;;9.80;;
7479;SDS011;3781;42.272;22.658;2024-01-30T13:25:25;32.47;;;11.37;;
7479;SDS011;3781;42.272;22.658;2024-01-30T13:27:52;6.13;;;3.23;;
7479;SDS011;3781;42.272;22.658;2024-01-30T13:30:19;12.17;;;5.87;;
7479;SDS011;3781;42.272;22.658;2024-01-30T13:32:47;6.80;;;4.03;;
7479;SDS011;3781;42.272;22.658;2024-01-30T13:35:14;12.50;;;6.47;;
7479;SDS011;3781;42.272;22.658;2024-01-30T13:37:41;11.00;;;5.17;;
7479;SDS011;3781;42.272;22.658;2024-01-30T13:40:09;7.77;;;4.30;;
7479;SDS011;3781;42.272;22.658;2024-01-30T13:42:36;5.77;;;3.73;;
7479;SDS011;3781;42.272;22.658;2024-01-30T13:45:03;6.47;;;3.60;;
7479;SDS011;3781;42.272;22.658;2024-01-30T13:47:30;7.33;;;3.37;;
7479;SDS011;3781;42.272;22.658;2024-01-30T13:49:59;13.23;;;6.27;;
7479;SDS011;3781;42.272;22.658;2024-01-30T13:52:26;2.77;;;2.03;;
7479;SDS011;3781;42.272;22.658;2024-01-30T13:54:53;6.47;;;4.03;;
7479;SDS011;3781;42.272;22.658;2024-01-30T13:57:20;2.33;;;1.77;;
7479;SDS011;3781;42.272;22.658;2024-01-30T13:59:47;4.40;;;2.27;;
7479;SDS011;3781;42.272;22.658;2024-01-30T14:02:14;1.63;;;1.53;;
7479;SDS011;3781;42.272;22.658;2024-01-30T14:04:41;4.27;;;2.73;;
7479;SDS011;3781;42.272;22.658;2024-01-30T14:07:11;5.07;;;3.47;;
7479;SDS011;3781;42.272;22.658;2024-01-30T14:09:38;6.20;;;3.13;;
7479;SDS011;3781;42.272;22.658;2024-01-30T14:12:05;4.27;;;2.97;;
7479;SDS011;3781;42.272;22.658;2024-01-30T14:14:33;6.57;;;3.53;;
7479;SDS011;3781;42.272;22.658;2024-01-30T14:17:00;7.17;;;2.43;;
7479;SDS011;3781;42.272;22.658;2024-01-30T14:19:29;4.37;;;2.63;;
7479;SDS011;3781;42.272;22.658;2024-01-30T14:21:56;5.40;;;2.93;;
7479;SDS011;3781;42.272;22.658;2024-01-30T14:24:24;1.30;;;1.20;;
7479;SDS011;3781;42.272;22.658;2024-01-30T14:26:51;6.97;;;2.80;;
7479;SDS011;3781;42.272;22.658;2024-01-30T14:29:20;3.37;;;2.27;;
7479;SDS011;3781;42.272;22.658;2024-01-30T14:31:47;2.83;;;2.37;;
7479;SDS011;3781;42.272;22.658;2024-01-30T14:34:14;1.77;;;1.63;;
7479;SDS011;3781;42.272;22.658;2024-01-30T14:36:41;4.40;;;2.63;;
7479;SDS011;3781;42.272;22.658;2024-01-30T14:39:08;3.40;;;2.30;;
7479;SDS011;3781;42.272;22.658;2024-01-30T14:41:37;3.40;;;1.63;;
7479;SDS011;3781;42.272;22.658;2024-01-30T14:44:04;1.23;;;1.07;;
7479;SDS011;3781;42.272;22.658;2024-01-30T14:46:31;1.43;;;1.23;;
7479;SDS011;3781;42.272;22.658;2024-01-30T14:48:58;2.50;;;1.07;;
7479;SDS011;3781;42.272;22.658;2024-01-30T14:51:28;2.73;;;1.20;;
7479;SDS011;3781;42.272;22.658;2024-01-30T14:53:55;5.00;;;1.73;;
7479;SDS011;3781;42.272;22.658;2024-01-30T14:56:22;1.03;;;0.93;;
7479;SDS011;3781;42.272;22.658;2024-01-30T14:58:51;1.90;;;0.80;;
7479;SDS011;3781;42.272;22.658;2024-01-30T15:01:18;0.90;;;0.90;;